createdAt,value
2019-03-26T00:01:37.929Z,10.70
2019-03-26T00:04:06.600Z,10.60
2019-03-26T00:06:35.216Z,10.70
2019-03-26T00:09:06.792Z,10.70
2019-03-26T00:11:35.460Z,10.60
2019-03-26T00:14:04.328Z,10.60
2019-03-26T00:16:33.052Z,10.60
2019-03-26T00:19:01.721Z,10.60
2019-03-26T00:21:30.366Z,10.50
2019-03-26T00:23:59.039Z,10.60
2019-03-26T00:26:27.773Z,10.60
2019-03-26T00:28:56.528Z,10.60
2019-03-26T00:31:25.138Z,10.50
2019-03-26T00:33:53.811Z,10.60
2019-03-26T00:36:22.430Z,10.50
2019-03-26T00:38:51.175Z,10.50
2019-03-26T00:41:19.906Z,10.50
2019-03-26T00:43:48.664Z,10.40
2019-03-26T00:46:17.378Z,10.50
2019-03-26T00:48:46.042Z,10.50
2019-03-26T00:51:14.704Z,10.50
2019-03-26T00:53:43.372Z,10.50
2019-03-26T00:56:11.991Z,10.40
2019-03-26T00:58:40.643Z,10.40
2019-03-26T01:01:09.841Z,10.30
2019-03-26T01:03:38.518Z,10.30
2019-03-26T01:06:07.137Z,10.20
2019-03-26T01:08:35.897Z,10.30
2019-03-26T01:11:04.977Z,10.20
2019-03-26T01:13:33.703Z,10.20
2019-03-26T01:16:02.324Z,10.20
2019-03-26T01:18:30.988Z,10.30
2019-03-26T01:20:59.593Z,10.20
2019-03-26T01:23:28.278Z,10.20
2019-03-26T01:25:57.380Z,10.20
2019-03-26T01:28:26.064Z,10.20
2019-03-26T01:30:54.671Z,10.20
2019-03-26T01:33:23.336Z,10.00
2019-03-26T01:35:51.953Z,10.00
2019-03-26T01:38:20.627Z,10.00
2019-03-26T01:40:50.429Z,10.00
2019-03-26T01:43:19.105Z,9.90
2019-03-26T01:45:47.781Z,9.90
2019-03-26T01:48:16.812Z,9.90
2019-03-26T01:50:45.477Z,9.90
2019-03-26T01:53:14.088Z,9.90
2019-03-26T01:55:42.912Z,9.90
2019-03-26T01:58:11.528Z,9.80
2019-03-26T02:00:40.209Z,9.80
2019-03-26T02:03:08.812Z,9.70
2019-03-26T02:05:37.468Z,9.70
2019-03-26T02:08:06.185Z,9.70
2019-03-26T02:10:34.958Z,9.70
2019-03-26T02:13:03.665Z,9.70
2019-03-26T02:15:33.209Z,9.70
2019-03-26T02:18:02.306Z,9.70
2019-03-26T02:20:31.348Z,9.60
2019-03-26T02:23:00.104Z,9.60
2019-03-26T02:25:28.772Z,9.70
2019-03-26T02:27:57.481Z,9.60
2019-03-26T02:30:26.143Z,9.60
2019-03-26T02:32:54.864Z,9.60
2019-03-26T02:35:23.639Z,9.60
2019-03-26T02:37:52.379Z,9.60
2019-03-26T02:40:21.101Z,9.60
2019-03-26T02:42:49.823Z,9.70
2019-03-26T02:45:18.495Z,9.70
2019-03-26T02:47:47.194Z,9.70
2019-03-26T02:50:15.969Z,9.70
2019-03-26T02:52:44.581Z,9.70
2019-03-26T02:55:13.342Z,9.70
2019-03-26T02:57:42.516Z,9.70
2019-03-26T03:00:11.388Z,9.60
2019-03-26T03:02:40.001Z,9.70
2019-03-26T03:05:08.893Z,9.60
2019-03-26T03:07:38.419Z,9.60
2019-03-26T03:10:07.808Z,9.50
2019-03-26T03:12:36.495Z,9.50
2019-03-26T03:15:05.656Z,9.50
2019-03-26T03:17:34.378Z,9.50
2019-03-26T03:20:03.478Z,9.50
2019-03-26T03:22:32.096Z,9.60
2019-03-26T03:25:00.874Z,9.50
2019-03-26T03:27:29.487Z,9.40
2019-03-26T03:29:58.140Z,9.50
2019-03-26T03:32:26.791Z,9.30
2019-03-26T03:34:55.587Z,9.50
2019-03-26T03:37:24.191Z,9.40
2019-03-26T03:39:52.809Z,9.40
2019-03-26T03:42:21.580Z,9.40
2019-03-26T03:44:50.197Z,9.40
2019-03-26T03:47:20.061Z,9.40
2019-03-26T03:49:49.389Z,9.40
2019-03-26T03:52:20.159Z,9.40
2019-03-26T03:54:48.787Z,9.30
2019-03-26T03:57:19.824Z,9.30
2019-03-26T03:59:49.270Z,9.40
2019-03-26T04:02:17.695Z,9.30
2019-03-26T04:04:46.123Z,9.40
2019-03-26T04:07:14.586Z,9.40
2019-03-26T04:09:43.366Z,9.40
2019-03-26T04:12:11.827Z,9.30
2019-03-26T04:14:40.295Z,9.40
2019-03-26T04:17:08.735Z,9.30
2019-03-26T04:19:37.168Z,9.40
2019-03-26T04:22:05.634Z,9.40
2019-03-26T04:24:34.057Z,9.40
2019-03-26T04:27:02.515Z,9.40
2019-03-26T04:29:30.982Z,9.30
2019-03-26T04:31:59.439Z,9.30
2019-03-26T04:34:27.847Z,9.20
2019-03-26T04:36:56.303Z,9.30
2019-03-26T04:39:24.711Z,9.30
2019-03-26T04:41:53.170Z,9.30
2019-03-26T04:44:21.587Z,9.40
2019-03-26T04:46:50.036Z,9.30
2019-03-26T04:49:18.498Z,9.30
2019-03-26T04:51:46.967Z,9.40
2019-03-26T04:54:15.390Z,9.40
2019-03-26T04:56:43.851Z,9.40
2019-03-26T04:59:12.254Z,9.40
2019-03-26T05:01:40.733Z,9.30
2019-03-26T05:04:09.153Z,9.30
2019-03-26T05:06:38.502Z,9.30
2019-03-26T05:09:07.091Z,9.30
2019-03-26T05:11:35.540Z,9.30
2019-03-26T05:14:04.106Z,9.20
2019-03-26T05:16:32.554Z,9.20
2019-03-26T05:19:00.956Z,9.20
2019-03-26T05:21:29.942Z,9.30
2019-03-26T05:23:58.398Z,9.30
2019-03-26T05:26:27.220Z,9.30
2019-03-26T05:28:55.838Z,9.40
2019-03-26T05:31:24.462Z,9.40
2019-03-26T05:33:53.522Z,9.30
2019-03-26T05:36:22.457Z,9.40
2019-03-26T05:38:51.980Z,9.30
2019-03-26T05:41:20.927Z,9.30
2019-03-26T05:43:49.767Z,9.30
2019-03-26T05:46:18.178Z,9.30
2019-03-26T05:48:46.626Z,9.40
2019-03-26T05:51:15.176Z,9.30
2019-03-26T05:53:43.618Z,9.30
2019-03-26T05:56:12.017Z,9.30
2019-03-26T05:58:40.793Z,9.40
2019-03-26T06:01:09.187Z,9.30
2019-03-26T06:03:37.631Z,9.40
2019-03-26T06:06:06.035Z,9.40
2019-03-26T06:08:34.471Z,9.40
2019-03-26T06:11:02.875Z,9.40
2019-03-26T06:13:31.318Z,9.40
2019-03-26T06:16:00.281Z,9.50
2019-03-26T06:18:29.183Z,9.50
2019-03-26T06:20:57.579Z,9.50
2019-03-26T06:23:26.018Z,9.50
2019-03-26T06:25:55.165Z,9.60
2019-03-26T06:28:24.031Z,9.60
2019-03-26T06:30:52.919Z,9.60
2019-03-26T06:33:22.450Z,9.70
2019-03-26T06:35:51.531Z,9.70
2019-03-26T06:38:20.257Z,9.90
2019-03-26T06:40:49.206Z,9.90
2019-03-26T06:43:18.267Z,10.00
2019-03-26T06:45:47.453Z,10.20
2019-03-26T06:48:15.898Z,10.40
2019-03-26T06:50:44.877Z,10.40
2019-03-26T06:53:13.590Z,10.80
2019-03-26T06:55:41.997Z,11.00
2019-03-26T06:58:10.443Z,11.20
2019-03-26T07:00:38.954Z,11.30
2019-03-26T07:03:07.490Z,11.50
2019-03-26T07:05:36.415Z,11.50
2019-03-26T07:08:06.246Z,11.70
2019-03-26T07:10:34.699Z,11.80
2019-03-26T07:13:03.887Z,11.80
2019-03-26T07:15:33.181Z,11.80
2019-03-26T07:18:02.480Z,11.90
2019-03-26T07:20:31.346Z,11.90
2019-03-26T07:22:59.758Z,11.90
2019-03-26T07:25:28.356Z,12.00
2019-03-26T07:27:57.838Z,11.80
2019-03-26T07:30:37.890Z,12.00
2019-03-26T07:33:07.233Z,12.10
2019-03-26T07:35:35.667Z,12.10
2019-03-26T07:38:04.835Z,12.20
2019-03-26T07:40:33.862Z,12.30
2019-03-26T07:43:02.281Z,12.40
2019-03-26T07:45:30.855Z,12.40
2019-03-26T07:47:59.251Z,12.50
2019-03-26T07:50:27.730Z,12.50
2019-03-26T07:52:56.103Z,12.70
2019-03-26T07:55:24.928Z,12.90
2019-03-26T07:57:53.378Z,12.80
2019-03-26T08:00:33.847Z,12.90
2019-03-26T08:03:02.268Z,13.10
2019-03-26T08:05:30.799Z,13.20
2019-03-26T08:07:59.209Z,13.30
2019-03-26T08:10:27.754Z,13.50
2019-03-26T08:12:56.217Z,13.70
2019-03-26T08:15:24.680Z,13.80
2019-03-26T08:17:53.503Z,13.90
2019-03-26T08:20:21.919Z,13.90
2019-03-26T08:22:50.325Z,13.90
2019-03-26T08:25:19.729Z,14.00
2019-03-26T08:27:48.162Z,14.30
2019-03-26T08:30:16.741Z,14.30
2019-03-26T08:32:45.169Z,14.30
2019-03-26T08:35:13.691Z,14.60
2019-03-26T08:37:42.258Z,14.70
2019-03-26T08:40:10.884Z,14.60
2019-03-26T08:42:39.320Z,14.80
2019-03-26T08:45:08.487Z,14.80
2019-03-26T08:47:37.651Z,15.10
2019-03-26T08:50:07.539Z,15.40
2019-03-26T08:52:36.623Z,15.60
2019-03-26T08:55:06.392Z,15.70
2019-03-26T08:57:34.830Z,15.80
2019-03-26T09:00:04.275Z,16.00
2019-03-26T09:02:32.718Z,16.10
2019-03-26T09:05:01.179Z,16.30
2019-03-26T09:07:29.726Z,16.20
2019-03-26T09:09:58.172Z,16.20
2019-03-26T09:12:26.692Z,16.20
2019-03-26T09:14:56.297Z,16.30
2019-03-26T09:17:24.724Z,16.20
2019-03-26T09:19:53.163Z,15.90
2019-03-26T09:22:21.710Z,16.10
2019-03-26T09:24:50.132Z,16.10
2019-03-26T09:27:18.556Z,16.20
2019-03-26T09:29:47.095Z,16.00
2019-03-26T09:32:15.544Z,16.00
2019-03-26T09:34:43.963Z,15.50
2019-03-26T09:37:12.515Z,15.80
2019-03-26T09:39:40.935Z,15.80
2019-03-26T09:42:09.346Z,15.70
2019-03-26T09:44:38.766Z,15.60
2019-03-26T09:47:16.036Z,15.50
2019-03-26T09:49:37.403Z,15.60
2019-03-26T09:52:05.895Z,15.80
2019-03-26T09:54:34.311Z,16.00
2019-03-26T09:57:02.763Z,15.90
2019-03-26T09:59:31.351Z,16.00
2019-03-26T10:01:59.770Z,16.30
2019-03-26T10:04:28.190Z,16.30
2019-03-26T10:06:56.680Z,16.40
2019-03-26T10:09:25.101Z,16.60
2019-03-26T10:11:53.522Z,16.80
2019-03-26T10:14:22.352Z,16.90
2019-03-26T10:16:50.816Z,16.90
2019-03-26T10:19:19.242Z,17.00
2019-03-26T10:21:47.790Z,17.30
2019-03-26T10:24:16.192Z,17.10
2019-03-26T10:26:44.615Z,17.50
2019-03-26T10:29:24.166Z,17.30
2019-03-26T10:31:43.974Z,17.30
2019-03-26T10:34:12.398Z,17.40
2019-03-26T10:36:41.733Z,17.40
2019-03-26T10:39:10.295Z,17.50
2019-03-26T10:41:38.711Z,17.20
2019-03-26T10:44:07.373Z,17.10
2019-03-26T10:46:35.838Z,17.40
2019-03-26T10:49:04.250Z,17.60
2019-03-26T10:51:32.811Z,17.70
2019-03-26T10:54:01.278Z,17.70
2019-03-26T10:56:32.493Z,17.90
2019-03-26T10:58:59.973Z,17.70
2019-03-26T11:01:28.407Z,17.80
2019-03-26T11:03:56.823Z,17.70
2019-03-26T11:06:25.359Z,17.50
2019-03-26T11:08:54.029Z,17.60
2019-03-26T11:11:22.431Z,17.80
2019-03-26T11:13:50.912Z,17.80
2019-03-26T11:16:19.376Z,17.80
2019-03-26T11:18:48.202Z,17.90
2019-03-26T11:21:16.703Z,17.90
2019-03-26T11:23:46.215Z,18.00
2019-03-26T11:26:14.834Z,17.90
2019-03-26T11:28:43.324Z,17.90
2019-03-26T11:31:11.760Z,17.90
2019-03-26T11:33:40.225Z,18.00
2019-03-26T11:36:08.909Z,18.00
2019-03-26T11:38:37.328Z,17.90
2019-03-26T11:41:05.779Z,17.80
2019-03-26T11:43:34.258Z,18.00
2019-03-26T11:46:02.780Z,18.00
2019-03-26T11:48:31.247Z,18.20
2019-03-26T11:50:59.712Z,18.20
2019-03-26T11:53:28.158Z,18.40
2019-03-26T11:55:56.590Z,18.30
2019-03-26T11:58:30.496Z,18.20
2019-03-26T12:00:55.288Z,18.10
2019-03-26T12:03:24.192Z,18.10
2019-03-26T12:05:52.895Z,17.60
2019-03-26T12:08:21.444Z,17.80
2019-03-26T12:10:49.858Z,18.00
2019-03-26T12:13:18.419Z,18.00
2019-03-26T12:15:46.881Z,18.10
2019-03-26T12:18:15.319Z,18.20
2019-03-26T12:20:43.791Z,18.20
2019-03-26T12:23:12.216Z,18.20
2019-03-26T12:25:40.646Z,18.20
2019-03-26T12:28:09.203Z,18.40
2019-03-26T12:30:38.464Z,18.50
2019-03-26T12:33:07.778Z,18.40
2019-03-26T12:35:36.481Z,18.40
2019-03-26T12:38:16.405Z,18.40
2019-03-26T12:40:45.049Z,18.50
2019-03-26T12:43:13.644Z,18.50
2019-03-26T12:45:42.306Z,18.40
2019-03-26T12:48:10.850Z,18.50
2019-03-26T12:50:39.282Z,18.60
2019-03-26T12:53:07.806Z,18.40
2019-03-26T12:55:36.298Z,18.30
2019-03-26T12:58:04.818Z,18.40
2019-03-26T13:00:33.466Z,18.30
2019-03-26T13:03:01.969Z,18.40
2019-03-26T13:05:30.391Z,18.50
2019-03-26T13:07:58.825Z,18.30
2019-03-26T13:10:27.294Z,18.30
2019-03-26T13:13:05.278Z,18.20
2019-03-26T13:15:33.966Z,18.40
2019-03-26T13:18:02.486Z,18.50
2019-03-26T13:20:31.010Z,18.50
2019-03-26T13:22:59.579Z,18.40
2019-03-26T13:25:28.025Z,18.30
2019-03-26T13:27:56.908Z,18.20
2019-03-26T13:30:25.402Z,18.30
2019-03-26T13:32:54.323Z,18.40
2019-03-26T13:35:22.859Z,18.60
2019-03-26T13:37:51.384Z,18.70
2019-03-26T13:40:27.178Z,18.60
2019-03-26T13:42:50.039Z,18.40
2019-03-26T13:45:18.598Z,18.60
2019-03-26T13:47:47.023Z,18.60
2019-03-26T13:50:15.563Z,18.50
2019-03-26T13:52:44.131Z,18.40
2019-03-26T13:55:12.651Z,18.10
2019-03-26T13:57:41.074Z,18.20
2019-03-26T14:00:10.925Z,18.30
2019-03-26T14:02:39.352Z,18.30
2019-03-26T14:05:21.588Z,18.20
2019-03-26T14:07:50.008Z,18.20
2019-03-26T14:10:18.632Z,18.40
2019-03-26T14:12:47.968Z,18.40
2019-03-26T14:15:16.769Z,18.50
2019-03-26T14:17:45.335Z,18.50
2019-03-26T14:20:15.375Z,18.40
2019-03-26T14:22:43.844Z,18.30
2019-03-26T14:25:12.990Z,18.30
2019-03-26T14:27:41.468Z,18.30
2019-03-26T14:30:12.407Z,18.30
2019-03-26T14:32:40.883Z,18.10
2019-03-26T14:35:09.442Z,18.00
2019-03-26T14:37:50.583Z,17.90
2019-03-26T14:40:08.311Z,18.00
2019-03-26T14:42:36.866Z,18.00
2019-03-26T14:45:06.504Z,18.00
2019-03-26T14:47:34.919Z,18.00
2019-03-26T14:50:03.723Z,18.00
2019-03-26T14:52:32.166Z,18.10
2019-03-26T14:55:00.600Z,18.00
2019-03-26T14:57:29.142Z,18.00
2019-03-26T14:59:57.561Z,17.90
2019-03-26T15:02:26.009Z,17.80
2019-03-26T15:04:54.543Z,17.80
2019-03-26T15:07:22.958Z,17.80
2019-03-26T15:09:51.851Z,17.80
2019-03-26T15:12:20.386Z,17.90
2019-03-26T15:14:48.803Z,17.90
2019-03-26T15:17:17.568Z,17.80
2019-03-26T15:19:46.158Z,17.80
2019-03-26T15:22:14.580Z,17.60
2019-03-26T15:24:43.447Z,17.60
2019-03-26T15:27:12.467Z,17.50
2019-03-26T15:29:40.928Z,17.60
2019-03-26T15:32:09.345Z,17.60
2019-03-26T15:34:37.836Z,17.50
2019-03-26T15:37:06.754Z,17.50
2019-03-26T15:39:35.579Z,17.50
2019-03-26T15:42:04.231Z,17.40
2019-03-26T15:44:32.659Z,17.40
2019-03-26T15:47:01.082Z,17.20
2019-03-26T15:49:29.623Z,17.30
2019-03-26T15:51:58.047Z,17.40
2019-03-26T15:54:26.487Z,17.50
2019-03-26T15:56:55.035Z,17.40
2019-03-26T15:59:23.461Z,17.40
2019-03-26T16:01:51.887Z,17.40
2019-03-26T16:04:26.095Z,17.40
2019-03-26T16:06:54.872Z,17.30
2019-03-26T16:09:23.899Z,17.20
2019-03-26T16:11:52.440Z,17.30
2019-03-26T16:14:20.851Z,17.30
2019-03-26T16:16:49.353Z,17.30
2019-03-26T16:19:31.873Z,17.30
2019-03-26T16:21:48.548Z,17.30
2019-03-26T16:24:17.459Z,17.20
2019-03-26T16:26:46.019Z,17.10
2019-03-26T16:29:14.481Z,17.00
2019-03-26T16:31:42.914Z,16.90
2019-03-26T16:34:11.466Z,16.80
2019-03-26T16:36:39.896Z,16.70
2019-03-26T16:39:09.019Z,16.60
2019-03-26T16:41:48.362Z,16.70
2019-03-26T16:44:07.835Z,16.60
2019-03-26T16:46:36.563Z,16.60
2019-03-26T16:49:05.337Z,16.60
2019-03-26T16:51:33.755Z,16.50
2019-03-26T16:54:02.191Z,16.50
2019-03-26T16:56:30.679Z,16.40
2019-03-26T16:58:59.094Z,16.40
2019-03-26T17:01:27.507Z,16.40
2019-03-26T17:03:55.985Z,16.30
2019-03-26T17:06:24.434Z,16.40
2019-03-26T17:08:52.857Z,16.30
2019-03-26T17:11:21.450Z,16.20
2019-03-26T17:13:49.872Z,16.20
2019-03-26T17:16:18.431Z,16.20
2019-03-26T17:18:46.973Z,16.10
2019-03-26T17:21:18.250Z,16.10
2019-03-26T17:23:45.622Z,16.10
2019-03-26T17:26:15.515Z,16.10
2019-03-26T17:28:44.082Z,16.00
2019-03-26T17:31:12.519Z,16.00
2019-03-26T17:33:41.014Z,16.00
2019-03-26T17:36:09.771Z,16.00
2019-03-26T17:38:38.196Z,16.00
2019-03-26T17:41:06.670Z,15.90
2019-03-26T17:43:35.121Z,15.90
2019-03-26T17:46:03.539Z,15.80
2019-03-26T17:48:32.022Z,15.70
2019-03-26T17:51:00.462Z,15.50
2019-03-26T17:53:28.901Z,15.40
2019-03-26T17:55:57.374Z,15.30
2019-03-26T17:58:25.804Z,15.30
2019-03-26T18:00:54.641Z,15.20
2019-03-26T18:03:26.767Z,15.10
2019-03-26T18:05:53.538Z,15.00
2019-03-26T18:08:21.971Z,14.90
2019-03-26T18:10:50.601Z,14.80
2019-03-26T18:13:19.063Z,14.70
2019-03-26T18:15:47.975Z,14.70
2019-03-26T18:18:16.459Z,14.70
2019-03-26T18:20:44.866Z,14.60
2019-03-26T18:23:13.876Z,14.60
2019-03-26T18:25:43.386Z,14.50
2019-03-26T18:28:11.902Z,14.60
2019-03-26T18:30:40.793Z,14.60
2019-03-26T18:33:09.660Z,14.60
2019-03-26T18:35:38.802Z,14.60
2019-03-26T18:38:08.376Z,14.60
2019-03-26T18:40:37.651Z,14.60
2019-03-26T18:43:07.014Z,14.60
2019-03-26T18:45:36.142Z,14.60
2019-03-26T18:48:04.938Z,14.60
2019-03-26T18:50:34.295Z,14.60
2019-03-26T18:53:03.427Z,14.60
2019-03-26T18:55:31.905Z,14.50
2019-03-26T18:58:00.640Z,14.40
2019-03-26T19:00:38.547Z,14.30
2019-03-26T19:03:07.445Z,14.20
2019-03-26T19:05:36.314Z,14.10
2019-03-26T19:08:05.100Z,14.00
2019-03-26T19:10:34.197Z,13.80
2019-03-26T19:13:03.322Z,13.80
2019-03-26T19:15:31.881Z,13.80
2019-03-26T19:18:00.463Z,13.80
2019-03-26T19:20:28.914Z,13.80
2019-03-26T19:22:59.037Z,13.80
2019-03-26T19:25:27.911Z,13.80
2019-03-26T19:27:56.358Z,13.80
2019-03-26T19:30:24.822Z,13.80
2019-03-26T19:32:53.631Z,13.70
2019-03-26T19:35:22.051Z,13.60
2019-03-26T19:37:51.386Z,13.60
2019-03-26T19:40:19.807Z,13.50
2019-03-26T19:42:48.235Z,13.50
2019-03-26T19:45:17.818Z,13.40
2019-03-26T19:47:46.269Z,13.40
2019-03-26T19:50:15.590Z,13.40
2019-03-26T19:52:44.203Z,13.30
2019-03-26T19:55:13.157Z,13.30
2019-03-26T19:57:41.621Z,13.30
2019-03-26T20:00:11.745Z,13.30
2019-03-26T20:02:40.171Z,13.30
2019-03-26T20:05:09.518Z,13.20
2019-03-26T20:07:38.771Z,13.10
2019-03-26T20:10:09.233Z,13.10
2019-03-26T20:12:37.727Z,13.00
2019-03-26T20:15:06.851Z,12.80
2019-03-26T20:17:35.314Z,12.70
2019-03-26T20:20:04.526Z,12.70
2019-03-26T20:22:37.046Z,12.60
2019-03-26T20:25:09.046Z,12.60
2019-03-26T20:27:37.510Z,12.60
2019-03-26T20:30:07.121Z,12.60
2019-03-26T20:32:35.679Z,12.50
2019-03-26T20:35:05.074Z,12.50
2019-03-26T20:37:33.532Z,12.50
2019-03-26T20:40:02.311Z,12.50
2019-03-26T20:42:34.379Z,12.50
2019-03-26T20:45:15.711Z,12.50
2019-03-26T20:47:44.154Z,12.60
2019-03-26T20:50:17.938Z,12.50
2019-03-26T20:52:51.151Z,12.50
2019-03-26T20:55:37.975Z,12.50
2019-03-26T20:58:06.934Z,12.50
2019-03-26T21:00:41.772Z,12.50
2019-03-26T21:03:10.746Z,12.60
2019-03-26T21:05:42.004Z,12.50
2019-03-26T21:08:12.710Z,12.50
2019-03-26T21:10:43.991Z,12.50
2019-03-26T21:13:14.363Z,12.50
2019-03-26T21:15:57.508Z,12.50
2019-03-26T21:18:23.787Z,12.40
2019-03-26T21:20:56.355Z,12.50
2019-03-26T21:23:32.411Z,12.40
2019-03-26T21:26:01.535Z,12.40
2019-03-26T21:28:36.362Z,12.40
2019-03-26T21:31:06.326Z,12.30
2019-03-26T21:33:35.023Z,12.20
2019-03-26T21:36:05.518Z,12.10
2019-03-26T21:38:35.554Z,12.00
2019-03-26T21:41:04.033Z,11.90
2019-03-26T21:43:32.843Z,11.90
2019-03-26T21:46:02.695Z,11.90
2019-03-26T21:48:35.546Z,11.90
2019-03-26T21:51:07.758Z,12.00
2019-03-26T21:53:38.179Z,12.10
2019-03-26T21:56:09.182Z,12.10
2019-03-26T21:58:38.028Z,12.10
2019-03-26T22:01:09.769Z,12.10
2019-03-26T22:03:42.178Z,12.10
2019-03-26T22:06:10.656Z,12.10
2019-03-26T22:08:43.611Z,12.10
2019-03-26T22:11:12.966Z,12.10
2019-03-26T22:13:42.410Z,12.10
2019-03-26T22:16:16.999Z,12.20
2019-03-26T22:18:47.108Z,12.00
2019-03-26T22:21:15.631Z,12.00
2019-03-26T22:23:45.035Z,11.90
2019-03-26T22:26:13.818Z,11.80
2019-03-26T22:28:42.515Z,11.70
2019-03-26T22:31:12.276Z,11.70
2019-03-26T22:33:42.394Z,11.60
2019-03-26T22:36:11.267Z,11.50
2019-03-26T22:38:40.691Z,11.50
2019-03-26T22:41:14.996Z,11.50
2019-03-26T22:43:46.142Z,11.40
2019-03-26T22:46:18.703Z,11.30
2019-03-26T22:48:47.142Z,11.40
2019-03-26T22:51:15.566Z,11.40
2019-03-26T22:53:44.031Z,11.30
2019-03-26T22:56:12.451Z,11.30
2019-03-26T22:58:40.919Z,11.20
2019-03-26T23:01:09.883Z,11.30
2019-03-26T23:03:38.355Z,11.30
2019-03-26T23:06:06.761Z,11.30
2019-03-26T23:08:35.223Z,11.30
2019-03-26T23:11:03.661Z,11.30
2019-03-26T23:13:32.206Z,11.30
2019-03-26T23:16:00.705Z,11.30
2019-03-26T23:18:29.159Z,11.30
2019-03-26T23:20:57.575Z,11.30
2019-03-26T23:23:26.026Z,11.30
2019-03-26T23:25:54.433Z,11.20
2019-03-26T23:28:23.295Z,11.20
2019-03-26T23:30:52.091Z,11.10
2019-03-26T23:33:20.565Z,11.10
2019-03-26T23:35:48.994Z,11.10
2019-03-26T23:38:17.451Z,11.10
2019-03-26T23:40:45.869Z,11.00
2019-03-26T23:43:14.390Z,11.00
2019-03-26T23:45:42.804Z,11.10
2019-03-26T23:48:11.271Z,11.10
2019-03-26T23:50:39.819Z,11.10
2019-03-26T23:53:08.344Z,11.00
2019-03-26T23:55:36.910Z,11.00
2019-03-26T23:58:05.739Z,10.90
